Henderson, NV (89009)

4:54 AM PDT en Abril 23, 2017 (GMT -0700)
Sunrise | | Change Station
Aviso en curso: Wind Advisory

Alt 1830 ft 36.05 °N, 114.97 °W | Updated 1 second ago

Parcialmente nublado
Parcialmente nublado
62.7 ° F
Sensación térmica 62.7 ° F
N
3.0
Viento Variable Viento desde Sur

Hoy
Alta -- | Baja -- ° F
--% Posibilidad de precipitaciones
Ayer
Alta -- | Baja -- ° F
Precip. -- pul
Presión 29.73 pul
Visibilidad 10.0 Millas
Nubes Despejado
Punto de rocío 28 ° F
Humedad 27%
Precipitaciones 0.00 pul
Espesor de la nieve No disponible.
5:56 AM 7:20 PM
Creciente menguante, 12% visible
METAR KHND 231056Z AUTO 16009KT 10SM CLR 19/M04 A2979 RMK AO2 SLP067 T01941039
Presión 29.73 pul
Visibilidad 10.0 Millas
Nubes Despejado
Punto de rocío 28 ° F
Humedad 27%
Precipitaciones 0.00 pul
Espesor de la nieve No disponible.
5:56 AM 7:20 PM
Creciente menguante, 12% visible
METAR KHND 231056Z AUTO 16009KT 10SM CLR 19/M04 A2979 RMK AO2 SLP067 T01941039

Get Your Daily Forecast Email!

Thanks for signing up!

Be on the lookout for a verification email in your inbox.

You'll start receiving severe weather alerts in your inbox..

×

10-Day Weather Forecast

Almanac

Astronomía

Apr. 23, 2017 Salida Puesta
Hora real
Crepúsculo civil
Crepúsculo náutico
Crepúsculo astronómico
Luna
Horas de luz
Horas de luz
Tomorrow will be .
, % of the Moon is Illuminated

Extremos de hoy

Máximos del estado Bajos del estado

Community

WunderPhotos

WunderBlog® & News

Nearby

Calidad del aire

  Calidad del aire Índice AQ Contaminante
Not available.

Grosos de nieve

Estación Profundido Altura

Actividad de terremotos

Ciudad Distance Mag. Tiempo y dato
Magnitud mínima muestra es 2,5.

Temperaturas de aguas costeras

Lugar Temperatura

Stations

Estaciones meteorológicas cercanas

Ubicación de la estación Temp. Vientos helados Punto de rocío Humedad Viento Precip. Alt Actualizado Tipo
                   

Watches & Warnings

Wind Advisory
Issued: 3:18 AM MDT Apr. 23, 2017 – National Weather Service

... Wind Advisory in effect from noon PDT /noon MST/ today to 8 PM
PDT /8 PM MST/ this evening...

The National Weather Service in Las Vegas has issued a Wind
Advisory, which is in effect from noon PDT /noon MST/ today to
8 PM PDT /8 PM MST/ this evening.

* Timing... winds are expected to increase by midday and continue
into the early evening.

* Winds... west to southwest 20 to 30 mph with gusts 40 to 45 mph.

* Impacts... strong Crosswinds will make travel difficult,
especially for high profile vehicles. Blowing dust may reduce
visibility at times. Unsecured objects could be blown around.
Use caution on lakes as strong winds over the open waters will
create hazardous boating conditions.

Precautionary/preparedness actions...

A Wind Advisory means strong winds gusting over 40 mph can make
driving difficult... especially for high profile vehicles. Use
extra caution.